sensor_id;sensor_type;location;lat;lon;timestamp;P1;durP1;ratioP1;P2;durP2;ratioP2
36931;SDS011;22847;42.654;23.370;2022-09-09T00:01:23;14.27;;;8.15;;
36931;SDS011;22847;42.654;23.370;2022-09-09T00:09:29;12.80;;;8.43;;
36931;SDS011;22847;42.654;23.370;2022-09-09T00:15:05;12.35;;;8.60;;
36931;SDS011;22847;42.654;23.370;2022-09-09T00:17:56;11.30;;;8.18;;
36931;SDS011;22847;42.654;23.370;2022-09-09T00:22:57;11.00;;;8.25;;
36931;SDS011;22847;42.654;23.370;2022-09-09T00:25:37;14.60;;;8.73;;
36931;SDS011;22847;42.654;23.370;2022-09-09T00:28:42;11.70;;;8.73;;
36931;SDS011;22847;42.654;23.370;2022-09-09T00:31:28;13.43;;;8.90;;
36931;SDS011;22847;42.654;23.370;2022-09-09T00:33:58;15.88;;;9.45;;
36931;SDS011;22847;42.654;23.370;2022-09-09T00:36:29;12.35;;;8.57;;
36931;SDS011;22847;42.654;23.370;2022-09-09T00:38:59;15.52;;;8.13;;
36931;SDS011;22847;42.654;23.370;2022-09-09T00:41:46;12.00;;;8.57;;
36931;SDS011;22847;42.654;23.370;2022-09-09T00:44:32;12.07;;;8.77;;
36931;SDS011;22847;42.654;23.370;2022-09-09T00:57:40;10.43;;;7.43;;
36931;SDS011;22847;42.654;23.370;2022-09-09T01:03:10;11.70;;;7.38;;
36931;SDS011;22847;42.654;23.370;2022-09-09T01:05:47;10.30;;;7.00;;
36931;SDS011;22847;42.654;23.370;2022-09-09T01:14:56;9.10;;;6.32;;
36931;SDS011;22847;42.654;23.370;2022-09-09T01:17:10;10.68;;;7.07;;
36931;SDS011;22847;42.654;23.370;2022-09-09T01:27:48;7.85;;;6.72;;
36931;SDS011;22847;42.654;23.370;2022-09-09T01:30:17;13.18;;;7.07;;
36931;SDS011;22847;42.654;23.370;2022-09-09T01:32:44;8.32;;;6.55;;
36931;SDS011;22847;42.654;23.370;2022-09-09T01:38:09;10.05;;;6.97;;
36931;SDS011;22847;42.654;23.370;2022-09-09T01:40:34;10.75;;;6.72;;
36931;SDS011;22847;42.654;23.370;2022-09-09T01:43:00;7.93;;;6.30;;
36931;SDS011;22847;42.654;23.370;2022-09-09T01:45:26;10.23;;;6.60;;
36931;SDS011;22847;42.654;23.370;2022-09-09T01:47:52;9.95;;;7.22;;
36931;SDS011;22847;42.654;23.370;2022-09-09T01:50:18;12.55;;;7.57;;
36931;SDS011;22847;42.654;23.370;2022-09-09T01:52:45;11.23;;;7.55;;
36931;SDS011;22847;42.654;23.370;2022-09-09T01:55:13;15.15;;;7.18;;
36931;SDS011;22847;42.654;23.370;2022-09-09T01:57:56;8.02;;;6.82;;
36931;SDS011;22847;42.654;23.370;2022-09-09T02:00:26;12.30;;;7.57;;
36931;SDS011;22847;42.654;23.370;2022-09-09T02:05:41;11.57;;;7.50;;
36931;SDS011;22847;42.654;23.370;2022-09-09T02:09:03;13.07;;;7.63;;
36931;SDS011;22847;42.654;23.370;2022-09-09T02:11:13;10.35;;;7.82;;
36931;SDS011;22847;42.654;23.370;2022-09-09T02:13:40;16.40;;;8.90;;
36931;SDS011;22847;42.654;23.370;2022-09-09T02:16:12;11.85;;;8.00;;
36931;SDS011;22847;42.654;23.370;2022-09-09T02:18:55;12.27;;;7.68;;
36931;SDS011;22847;42.654;23.370;2022-09-09T02:21:26;14.70;;;7.88;;
36931;SDS011;22847;42.654;23.370;2022-09-09T02:23:54;11.00;;;7.22;;
36931;SDS011;22847;42.654;23.370;2022-09-09T02:26:23;10.90;;;7.28;;
36931;SDS011;22847;42.654;23.370;2022-09-09T02:28:52;11.13;;;6.95;;
36931;SDS011;22847;42.654;23.370;2022-09-09T02:31:21;11.32;;;6.97;;
36931;SDS011;22847;42.654;23.370;2022-09-09T02:33:56;11.82;;;7.55;;
36931;SDS011;22847;42.654;23.370;2022-09-09T02:36:26;12.13;;;7.00;;
36931;SDS011;22847;42.654;23.370;2022-09-09T02:38:54;13.68;;;7.32;;
36931;SDS011;22847;42.654;23.370;2022-09-09T02:41:23;12.13;;;7.03;;
36931;SDS011;22847;42.654;23.370;2022-09-09T02:43:53;14.60;;;7.40;;
36931;SDS011;22847;42.654;23.370;2022-09-09T02:49:03;10.40;;;7.20;;
36931;SDS011;22847;42.654;23.370;2022-09-09T02:56:55;15.82;;;7.93;;
36931;SDS011;22847;42.654;23.370;2022-09-09T02:59:35;19.90;;;7.30;;
36931;SDS011;22847;42.654;23.370;2022-09-09T03:02:01;15.48;;;7.55;;
36931;SDS011;22847;42.654;23.370;2022-09-09T03:04:27;13.05;;;7.47;;
36931;SDS011;22847;42.654;23.370;2022-09-09T03:06:53;14.95;;;7.63;;
36931;SDS011;22847;42.654;23.370;2022-09-09T03:09:19;12.43;;;8.48;;
36931;SDS011;22847;42.654;23.370;2022-09-09T03:11:44;12.35;;;8.77;;
36931;SDS011;22847;42.654;23.370;2022-09-09T03:14:10;12.90;;;8.18;;
36931;SDS011;22847;42.654;23.370;2022-09-09T03:16:36;12.68;;;7.90;;
36931;SDS011;22847;42.654;23.370;2022-09-09T03:19:02;14.73;;;8.88;;
36931;SDS011;22847;42.654;23.370;2022-09-09T03:21:28;12.07;;;8.23;;
36931;SDS011;22847;42.654;23.370;2022-09-09T03:23:53;16.02;;;9.10;;
36931;SDS011;22847;42.654;23.370;2022-09-09T03:26:18;16.88;;;8.48;;
36931;SDS011;22847;42.654;23.370;2022-09-09T03:28:45;13.65;;;8.60;;
36931;SDS011;22847;42.654;23.370;2022-09-09T03:31:10;11.05;;;8.95;;
36931;SDS011;22847;42.654;23.370;2022-09-09T03:33:36;10.93;;;8.10;;
36931;SDS011;22847;42.654;23.370;2022-09-09T03:36:03;11.02;;;8.27;;
36931;SDS011;22847;42.654;23.370;2022-09-09T03:38:29;17.05;;;9.07;;
36931;SDS011;22847;42.654;23.370;2022-09-09T03:40:55;13.93;;;8.95;;
36931;SDS011;22847;42.654;23.370;2022-09-09T03:43:26;13.18;;;8.68;;
36931;SDS011;22847;42.654;23.370;2022-09-09T03:45:52;14.15;;;10.05;;
36931;SDS011;22847;42.654;23.370;2022-09-09T03:48:19;20.55;;;9.75;;
36931;SDS011;22847;42.654;23.370;2022-09-09T03:50:45;16.52;;;8.80;;
36931;SDS011;22847;42.654;23.370;2022-09-09T03:53:11;14.30;;;8.85;;
36931;SDS011;22847;42.654;23.370;2022-09-09T03:55:37;14.75;;;8.75;;
36931;SDS011;22847;42.654;23.370;2022-09-09T03:58:03;15.07;;;10.20;;
36931;SDS011;22847;42.654;23.370;2022-09-09T04:00:28;16.63;;;11.35;;
36931;SDS011;22847;42.654;23.370;2022-09-09T04:02:55;16.55;;;10.43;;
36931;SDS011;22847;42.654;23.370;2022-09-09T04:05:22;15.48;;;9.52;;
36931;SDS011;22847;42.654;23.370;2022-09-09T04:07:48;18.35;;;11.05;;
36931;SDS011;22847;42.654;23.370;2022-09-09T04:10:13;12.77;;;9.85;;
36931;SDS011;22847;42.654;23.370;2022-09-09T04:12:40;18.23;;;10.32;;
36931;SDS011;22847;42.654;23.370;2022-09-09T04:15:06;12.70;;;9.90;;
36931;SDS011;22847;42.654;23.370;2022-09-09T04:17:32;15.75;;;9.68;;
36931;SDS011;22847;42.654;23.370;2022-09-09T04:19:58;17.30;;;9.75;;
36931;SDS011;22847;42.654;23.370;2022-09-09T04:22:23;18.95;;;9.75;;
36931;SDS011;22847;42.654;23.370;2022-09-09T04:24:49;19.58;;;10.43;;
36931;SDS011;22847;42.654;23.370;2022-09-09T04:27:14;16.73;;;9.57;;
36931;SDS011;22847;42.654;23.370;2022-09-09T04:29:39;18.65;;;10.32;;
36931;SDS011;22847;42.654;23.370;2022-09-09T04:32:05;15.95;;;10.23;;
36931;SDS011;22847;42.654;23.370;2022-09-09T04:34:30;19.02;;;11.13;;
36931;SDS011;22847;42.654;23.370;2022-09-09T04:36:56;18.83;;;11.70;;
36931;SDS011;22847;42.654;23.370;2022-09-09T04:39:22;16.10;;;10.73;;
36931;SDS011;22847;42.654;23.370;2022-09-09T04:41:47;20.70;;;13.07;;
36931;SDS011;22847;42.654;23.370;2022-09-09T04:44:13;20.48;;;12.25;;
36931;SDS011;22847;42.654;23.370;2022-09-09T04:46:39;24.42;;;14.52;;
36931;SDS011;22847;42.654;23.370;2022-09-09T04:49:06;22.25;;;14.35;;
36931;SDS011;22847;42.654;23.370;2022-09-09T04:51:31;24.80;;;15.35;;
36931;SDS011;22847;42.654;23.370;2022-09-09T04:53:57;26.50;;;16.67;;
36931;SDS011;22847;42.654;23.370;2022-09-09T04:56:22;26.73;;;14.55;;
36931;SDS011;22847;42.654;23.370;2022-09-09T04:58:48;17.70;;;12.40;;
36931;SDS011;22847;42.654;23.370;2022-09-09T05:01:20;21.02;;;12.85;;
36931;SDS011;22847;42.654;23.370;2022-09-09T05:06:14;12.90;;;7.65;;
36931;SDS011;22847;42.654;23.370;2022-09-09T05:08:41;11.90;;;7.50;;
36931;SDS011;22847;42.654;23.370;2022-09-09T05:11:14;8.18;;;6.13;;
36931;SDS011;22847;42.654;23.370;2022-09-09T05:13:41;14.10;;;7.47;;
36931;SDS011;22847;42.654;23.370;2022-09-09T05:16:06;7.55;;;6.70;;
36931;SDS011;22847;42.654;23.370;2022-09-09T05:18:32;10.85;;;7.10;;
36931;SDS011;22847;42.654;23.370;2022-09-09T05:21:00;16.50;;;6.13;;
36931;SDS011;22847;42.654;23.370;2022-09-09T05:23:26;10.07;;;5.97;;
36931;SDS011;22847;42.654;23.370;2022-09-09T05:25:55;17.10;;;6.40;;
36931;SDS011;22847;42.654;23.370;2022-09-09T05:28:22;11.50;;;6.82;;
36931;SDS011;22847;42.654;23.370;2022-09-09T05:30:59;10.88;;;6.47;;
36931;SDS011;22847;42.654;23.370;2022-09-09T05:33:26;12.30;;;6.35;;
36931;SDS011;22847;42.654;23.370;2022-09-09T05:35:58;8.57;;;6.28;;
36931;SDS011;22847;42.654;23.370;2022-09-09T05:38:26;10.07;;;6.53;;
36931;SDS011;22847;42.654;23.370;2022-09-09T05:40:52;10.10;;;6.40;;
36931;SDS011;22847;42.654;23.370;2022-09-09T05:43:19;12.27;;;6.15;;
36931;SDS011;22847;42.654;23.370;2022-09-09T05:45:45;11.30;;;5.82;;
36931;SDS011;22847;42.654;23.370;2022-09-09T05:48:12;14.10;;;5.97;;
36931;SDS011;22847;42.654;23.370;2022-09-09T05:50:40;13.90;;;8.00;;
36931;SDS011;22847;42.654;23.370;2022-09-09T05:53:05;12.80;;;8.02;;
36931;SDS011;22847;42.654;23.370;2022-09-09T05:55:31;10.68;;;6.53;;
36931;SDS011;22847;42.654;23.370;2022-09-09T05:57:56;9.35;;;5.80;;
36931;SDS011;22847;42.654;23.370;2022-09-09T06:00:22;7.57;;;5.60;;
36931;SDS011;22847;42.654;23.370;2022-09-09T06:02:51;12.52;;;6.10;;
36931;SDS011;22847;42.654;23.370;2022-09-09T06:05:17;9.48;;;5.63;;
36931;SDS011;22847;42.654;23.370;2022-09-09T06:07:43;7.03;;;5.40;;
36931;SDS011;22847;42.654;23.370;2022-09-09T06:10:09;12.30;;;5.95;;
36931;SDS011;22847;42.654;23.370;2022-09-09T06:12:35;10.75;;;6.10;;
36931;SDS011;22847;42.654;23.370;2022-09-09T06:15:01;10.85;;;6.55;;
36931;SDS011;22847;42.654;23.370;2022-09-09T06:17:27;13.02;;;6.13;;
36931;SDS011;22847;42.654;23.370;2022-09-09T06:19:52;9.45;;;6.13;;
36931;SDS011;22847;42.654;23.370;2022-09-09T06:22:18;13.88;;;6.70;;
36931;SDS011;22847;42.654;23.370;2022-09-09T06:24:44;11.05;;;5.70;;
36931;SDS011;22847;42.654;23.370;2022-09-09T06:27:09;10.40;;;6.65;;
36931;SDS011;22847;42.654;23.370;2022-09-09T06:29:35;13.23;;;5.90;;
36931;SDS011;22847;42.654;23.370;2022-09-09T06:32:02;12.27;;;6.70;;
36931;SDS011;22847;42.654;23.370;2022-09-09T06:34:28;13.15;;;5.85;;
36931;SDS011;22847;42.654;23.370;2022-09-09T06:36:53;10.23;;;5.43;;
36931;SDS011;22847;42.654;23.370;2022-09-09T06:39:20;11.23;;;6.43;;
36931;SDS011;22847;42.654;23.370;2022-09-09T06:41:46;11.60;;;6.47;;
36931;SDS011;22847;42.654;23.370;2022-09-09T06:44:12;16.33;;;6.75;;
36931;SDS011;22847;42.654;23.370;2022-09-09T06:46:37;12.00;;;6.22;;
36931;SDS011;22847;42.654;23.370;2022-09-09T06:49:03;17.55;;;6.13;;
36931;SDS011;22847;42.654;23.370;2022-09-09T06:51:29;12.10;;;6.47;;
36931;SDS011;22847;42.654;23.370;2022-09-09T06:53:57;8.65;;;5.65;;
36931;SDS011;22847;42.654;23.370;2022-09-09T06:56:25;15.05;;;6.15;;
36931;SDS011;22847;42.654;23.370;2022-09-09T06:59:01;12.43;;;5.55;;
36931;SDS011;22847;42.654;23.370;2022-09-09T07:01:30;9.77;;;4.95;;
36931;SDS011;22847;42.654;23.370;2022-09-09T07:03:58;12.00;;;5.13;;
36931;SDS011;22847;42.654;23.370;2022-09-09T07:06:25;11.18;;;5.38;;
36931;SDS011;22847;42.654;23.370;2022-09-09T07:08:59;10.05;;;5.50;;
36931;SDS011;22847;42.654;23.370;2022-09-09T07:11:30;10.27;;;5.72;;
36931;SDS011;22847;42.654;23.370;2022-09-09T07:13:57;8.38;;;5.68;;
36931;SDS011;22847;42.654;23.370;2022-09-09T07:16:24;10.07;;;5.63;;
36931;SDS011;22847;42.654;23.370;2022-09-09T07:18:51;10.35;;;5.68;;
36931;SDS011;22847;42.654;23.370;2022-09-09T07:21:18;11.15;;;6.18;;
36931;SDS011;22847;42.654;23.370;2022-09-09T07:23:44;9.40;;;5.57;;
36931;SDS011;22847;42.654;23.370;2022-09-09T07:26:10;12.68;;;5.57;;
36931;SDS011;22847;42.654;23.370;2022-09-09T07:28:37;8.73;;;4.65;;
36931;SDS011;22847;42.654;23.370;2022-09-09T07:31:03;7.70;;;4.70;;
36931;SDS011;22847;42.654;23.370;2022-09-09T07:33:30;12.85;;;5.30;;
36931;SDS011;22847;42.654;23.370;2022-09-09T07:36:02;8.02;;;4.88;;
36931;SDS011;22847;42.654;23.370;2022-09-09T07:38:29;13.18;;;5.63;;
36931;SDS011;22847;42.654;23.370;2022-09-09T07:41:02;12.52;;;5.13;;
36931;SDS011;22847;42.654;23.370;2022-09-09T07:43:29;7.60;;;4.55;;
36931;SDS011;22847;42.654;23.370;2022-09-09T07:45:58;13.40;;;5.20;;
36931;SDS011;22847;42.654;23.370;2022-09-09T07:48:25;15.52;;;6.20;;
36931;SDS011;22847;42.654;23.370;2022-09-09T07:50:50;18.55;;;5.30;;
36931;SDS011;22847;42.654;23.370;2022-09-09T07:53:16;10.45;;;5.88;;
36931;SDS011;22847;42.654;23.370;2022-09-09T07:55:41;8.10;;;5.45;;
36931;SDS011;22847;42.654;23.370;2022-09-09T07:58:07;10.52;;;5.20;;
36931;SDS011;22847;42.654;23.370;2022-09-09T08:00:33;12.88;;;5.10;;
36931;SDS011;22847;42.654;23.370;2022-09-09T08:02:58;11.73;;;5.43;;
36931;SDS011;22847;42.654;23.370;2022-09-09T08:05:25;12.85;;;5.43;;
36931;SDS011;22847;42.654;23.370;2022-09-09T08:07:51;13.13;;;5.82;;
36931;SDS011;22847;42.654;23.370;2022-09-09T08:10:16;13.02;;;5.72;;
36931;SDS011;22847;42.654;23.370;2022-09-09T08:12:43;7.80;;;5.07;;
36931;SDS011;22847;42.654;23.370;2022-09-09T08:15:09;7.18;;;4.95;;
36931;SDS011;22847;42.654;23.370;2022-09-09T08:17:34;9.25;;;5.13;;
36931;SDS011;22847;42.654;23.370;2022-09-09T08:19:59;13.82;;;5.97;;
36931;SDS011;22847;42.654;23.370;2022-09-09T08:22:29;12.23;;;5.47;;
36931;SDS011;22847;42.654;23.370;2022-09-09T08:24:55;9.02;;;5.03;;
36931;SDS011;22847;42.654;23.370;2022-09-09T08:27:21;9.25;;;5.40;;
36931;SDS011;22847;42.654;23.370;2022-09-09T08:29:47;11.88;;;5.22;;
36931;SDS011;22847;42.654;23.370;2022-09-09T08:32:13;12.93;;;5.45;;
36931;SDS011;22847;42.654;23.370;2022-09-09T08:34:38;9.93;;;5.60;;
36931;SDS011;22847;42.654;23.370;2022-09-09T08:37:03;7.82;;;5.28;;
36931;SDS011;22847;42.654;23.370;2022-09-09T08:39:29;8.50;;;5.22;;
36931;SDS011;22847;42.654;23.370;2022-09-09T08:44:56;8.25;;;5.55;;
36931;SDS011;22847;42.654;23.370;2022-09-09T08:52:41;15.57;;;5.55;;
36931;SDS011;22847;42.654;23.370;2022-09-09T09:04:27;16.02;;;5.93;;
36931;SDS011;22847;42.654;23.370;2022-09-09T09:11:58;10.05;;;5.45;;
36931;SDS011;22847;42.654;23.370;2022-09-09T09:14:30;14.05;;;5.38;;
36931;SDS011;22847;42.654;23.370;2022-09-09T09:19:41;11.32;;;5.53;;
36931;SDS011;22847;42.654;23.370;2022-09-09T09:27:30;14.90;;;6.28;;
36931;SDS011;22847;42.654;23.370;2022-09-09T09:30:05;8.95;;;6.63;;
36931;SDS011;22847;42.654;23.370;2022-09-09T09:32:39;16.15;;;7.32;;
36931;SDS011;22847;42.654;23.370;2022-09-09T09:35:10;11.93;;;5.88;;
36931;SDS011;22847;42.654;23.370;2022-09-09T09:37:37;13.27;;;5.70;;
36931;SDS011;22847;42.654;23.370;2022-09-09T09:40:11;9.60;;;5.43;;
36931;SDS011;22847;42.654;23.370;2022-09-09T09:45:34;18.40;;;6.38;;
36931;SDS011;22847;42.654;23.370;2022-09-09T09:48:08;13.23;;;5.88;;
36931;SDS011;22847;42.654;23.370;2022-09-09T09:50:39;17.33;;;6.80;;
36931;SDS011;22847;42.654;23.370;2022-09-09T09:53:23;14.18;;;5.78;;
36931;SDS011;22847;42.654;23.370;2022-09-09T09:58:25;9.93;;;6.20;;
36931;SDS011;22847;42.654;23.370;2022-09-09T10:00:53;12.40;;;5.07;;
36931;SDS011;22847;42.654;23.370;2022-09-09T10:03:32;11.90;;;6.50;;
36931;SDS011;22847;42.654;23.370;2022-09-09T10:06:03;9.57;;;6.90;;
36931;SDS011;22847;42.654;23.370;2022-09-09T10:08:29;19.77;;;6.25;;
36931;SDS011;22847;42.654;23.370;2022-09-09T10:13:48;13.05;;;7.00;;
36931;SDS011;22847;42.654;23.370;2022-09-09T10:19:21;14.13;;;6.70;;
36931;SDS011;22847;42.654;23.370;2022-09-09T10:22:03;17.80;;;6.65;;
36931;SDS011;22847;42.654;23.370;2022-09-09T10:39:04;8.27;;;5.70;;
36931;SDS011;22847;42.654;23.370;2022-09-09T10:41:44;11.90;;;6.25;;
36931;SDS011;22847;42.654;23.370;2022-09-09T10:44:33;13.30;;;5.95;;
36931;SDS011;22847;42.654;23.370;2022-09-09T10:47:22;11.57;;;6.10;;
36931;SDS011;22847;42.654;23.370;2022-09-09T10:59:47;13.50;;;6.18;;
36931;SDS011;22847;42.654;23.370;2022-09-09T11:02:21;11.13;;;5.93;;
36931;SDS011;22847;42.654;23.370;2022-09-09T11:05:01;8.13;;;5.43;;
36931;SDS011;22847;42.654;23.370;2022-09-09T11:12:56;14.82;;;6.47;;
36931;SDS011;22847;42.654;23.370;2022-09-09T11:15:39;14.57;;;6.97;;
36931;SDS011;22847;42.654;23.370;2022-09-09T11:18:10;16.98;;;6.95;;
36931;SDS011;22847;42.654;23.370;2022-09-09T11:20:40;14.73;;;6.95;;
36931;SDS011;22847;42.654;23.370;2022-09-09T11:23:11;12.55;;;7.68;;
36931;SDS011;22847;42.654;23.370;2022-09-09T11:25:47;9.20;;;6.28;;
36931;SDS011;22847;42.654;23.370;2022-09-09T11:33:56;18.27;;;9.32;;
36931;SDS011;22847;42.654;23.370;2022-09-09T11:36:47;17.23;;;8.15;;
36931;SDS011;22847;42.654;23.370;2022-09-09T11:44:39;12.80;;;7.68;;
36931;SDS011;22847;42.654;23.370;2022-09-09T11:50:09;21.08;;;10.40;;
36931;SDS011;22847;42.654;23.370;2022-09-09T11:52:42;17.23;;;8.57;;
36931;SDS011;22847;42.654;23.370;2022-09-09T12:00:30;18.48;;;9.48;;
36931;SDS011;22847;42.654;23.370;2022-09-09T12:03:02;17.45;;;10.25;;
36931;SDS011;22847;42.654;23.370;2022-09-09T12:05:42;14.63;;;8.13;;
36931;SDS011;22847;42.654;23.370;2022-09-09T12:08:10;12.82;;;8.82;;
36931;SDS011;22847;42.654;23.370;2022-09-09T12:10:52;15.18;;;8.93;;
36931;SDS011;22847;42.654;23.370;2022-09-09T12:13:20;13.73;;;7.90;;
36931;SDS011;22847;42.654;23.370;2022-09-09T12:15:51;13.63;;;8.60;;
36931;SDS011;22847;42.654;23.370;2022-09-09T12:18:25;15.32;;;8.57;;
36931;SDS011;22847;42.654;23.370;2022-09-09T12:24:09;12.25;;;8.05;;
36931;SDS011;22847;42.654;23.370;2022-09-09T12:29:43;23.85;;;9.23;;
36931;SDS011;22847;42.654;23.370;2022-09-09T12:32:22;15.60;;;8.30;;
36931;SDS011;22847;42.654;23.370;2022-09-09T12:37:37;19.00;;;8.00;;
36931;SDS011;22847;42.654;23.370;2022-09-09T12:40:18;13.40;;;7.78;;
36931;SDS011;22847;42.654;23.370;2022-09-09T12:42:52;18.45;;;8.52;;
36931;SDS011;22847;42.654;23.370;2022-09-09T12:45:21;12.60;;;8.32;;
36931;SDS011;22847;42.654;23.370;2022-09-09T12:53:13;15.10;;;8.48;;
36931;SDS011;22847;42.654;23.370;2022-09-09T12:55:50;19.58;;;8.27;;
36931;SDS011;22847;42.654;23.370;2022-09-09T12:58:18;14.55;;;7.88;;
36931;SDS011;22847;42.654;23.370;2022-09-09T13:00:52;15.85;;;7.90;;
36931;SDS011;22847;42.654;23.370;2022-09-09T13:03:21;15.13;;;7.63;;
36931;SDS011;22847;42.654;23.370;2022-09-09T13:05:47;17.27;;;8.38;;
36931;SDS011;22847;42.654;23.370;2022-09-09T13:08:13;11.57;;;7.57;;
36931;SDS011;22847;42.654;23.370;2022-09-09T13:10:41;15.73;;;8.38;;
36931;SDS011;22847;42.654;23.370;2022-09-09T13:13:15;15.05;;;8.25;;
36931;SDS011;22847;42.654;23.370;2022-09-09T13:15:49;19.73;;;7.75;;
36931;SDS011;22847;42.654;23.370;2022-09-09T13:18:18;13.75;;;7.88;;
36931;SDS011;22847;42.654;23.370;2022-09-09T13:20:48;13.15;;;7.90;;
36931;SDS011;22847;42.654;23.370;2022-09-09T13:23:14;12.98;;;8.25;;
36931;SDS011;22847;42.654;23.370;2022-09-09T13:25:53;12.77;;;7.90;;
36931;SDS011;22847;42.654;23.370;2022-09-09T13:28:24;22.17;;;8.45;;
36931;SDS011;22847;42.654;23.370;2022-09-09T13:31:35;14.85;;;8.00;;
36931;SDS011;22847;42.654;23.370;2022-09-09T13:33:52;11.25;;;7.93;;
36931;SDS011;22847;42.654;23.370;2022-09-09T13:36:27;19.40;;;8.13;;
36931;SDS011;22847;42.654;23.370;2022-09-09T13:38:58;14.85;;;7.80;;
36931;SDS011;22847;42.654;23.370;2022-09-09T13:41:25;18.55;;;8.95;;
36931;SDS011;22847;42.654;23.370;2022-09-09T13:43:56;13.05;;;7.85;;
36931;SDS011;22847;42.654;23.370;2022-09-09T13:48:57;15.73;;;7.55;;
36931;SDS011;22847;42.654;23.370;2022-09-09T13:54:02;18.02;;;7.95;;
36931;SDS011;22847;42.654;23.370;2022-09-09T13:56:29;20.02;;;8.23;;
36931;SDS011;22847;42.654;23.370;2022-09-09T13:58:54;16.98;;;8.30;;
36931;SDS011;22847;42.654;23.370;2022-09-09T14:01:20;23.08;;;8.35;;
36931;SDS011;22847;42.654;23.370;2022-09-09T14:03:45;14.95;;;8.38;;
36931;SDS011;22847;42.654;23.370;2022-09-09T14:06:11;15.52;;;8.13;;
36931;SDS011;22847;42.654;23.370;2022-09-09T14:08:36;16.80;;;8.60;;
36931;SDS011;22847;42.654;23.370;2022-09-09T14:11:03;17.02;;;8.27;;
36931;SDS011;22847;42.654;23.370;2022-09-09T14:13:29;13.20;;;7.60;;
36931;SDS011;22847;42.654;23.370;2022-09-09T14:15:54;19.58;;;8.20;;
36931;SDS011;22847;42.654;23.370;2022-09-09T14:18:19;21.20;;;9.13;;
36931;SDS011;22847;42.654;23.370;2022-09-09T14:20:47;13.73;;;8.15;;
36931;SDS011;22847;42.654;23.370;2022-09-09T14:23:13;23.65;;;11.27;;
36931;SDS011;22847;42.654;23.370;2022-09-09T14:25:40;19.60;;;8.88;;
36931;SDS011;22847;42.654;23.370;2022-09-09T14:28:07;13.55;;;8.27;;
36931;SDS011;22847;42.654;23.370;2022-09-09T14:30:34;16.25;;;8.80;;
36931;SDS011;22847;42.654;23.370;2022-09-09T14:33:00;19.40;;;8.40;;
36931;SDS011;22847;42.654;23.370;2022-09-09T14:35:25;13.98;;;7.60;;
36931;SDS011;22847;42.654;23.370;2022-09-09T14:37:51;11.55;;;7.20;;
36931;SDS011;22847;42.654;23.370;2022-09-09T14:40:16;18.08;;;7.25;;
36931;SDS011;22847;42.654;23.370;2022-09-09T14:42:42;13.50;;;7.40;;
36931;SDS011;22847;42.654;23.370;2022-09-09T14:45:07;18.17;;;7.43;;
36931;SDS011;22847;42.654;23.370;2022-09-09T14:47:33;22.75;;;8.15;;
36931;SDS011;22847;42.654;23.370;2022-09-09T14:49:58;16.52;;;7.45;;
36931;SDS011;22847;42.654;23.370;2022-09-09T14:52:25;15.95;;;8.13;;
36931;SDS011;22847;42.654;23.370;2022-09-09T14:54:51;25.77;;;8.07;;
36931;SDS011;22847;42.654;23.370;2022-09-09T14:57:16;15.00;;;7.72;;
36931;SDS011;22847;42.654;23.370;2022-09-09T14:59:42;14.30;;;8.20;;
36931;SDS011;22847;42.654;23.370;2022-09-09T15:02:08;16.02;;;7.72;;
36931;SDS011;22847;42.654;23.370;2022-09-09T15:04:34;13.70;;;7.82;;
36931;SDS011;22847;42.654;23.370;2022-09-09T15:07:00;21.98;;;7.82;;
36931;SDS011;22847;42.654;23.370;2022-09-09T15:09:25;15.35;;;7.47;;
36931;SDS011;22847;42.654;23.370;2022-09-09T15:11:51;17.05;;;7.90;;
36931;SDS011;22847;42.654;23.370;2022-09-09T15:14:16;18.40;;;7.72;;
36931;SDS011;22847;42.654;23.370;2022-09-09T15:16:42;14.70;;;7.85;;
36931;SDS011;22847;42.654;23.370;2022-09-09T15:19:07;13.60;;;7.93;;
36931;SDS011;22847;42.654;23.370;2022-09-09T15:21:34;15.85;;;8.27;;
36931;SDS011;22847;42.654;23.370;2022-09-09T15:24:01;12.60;;;8.13;;
36931;SDS011;22847;42.654;23.370;2022-09-09T15:26:27;17.10;;;8.32;;
36931;SDS011;22847;42.654;23.370;2022-09-09T15:28:54;19.77;;;8.35;;
36931;SDS011;22847;42.654;23.370;2022-09-09T15:31:22;14.63;;;8.68;;
36931;SDS011;22847;42.654;23.370;2022-09-09T15:33:54;16.98;;;9.25;;
36931;SDS011;22847;42.654;23.370;2022-09-09T15:36:39;24.52;;;9.15;;
36931;SDS011;22847;42.654;23.370;2022-09-09T15:39:07;23.90;;;8.82;;
36931;SDS011;22847;42.654;23.370;2022-09-09T15:41:38;15.35;;;9.55;;
36931;SDS011;22847;42.654;23.370;2022-09-09T15:44:04;16.48;;;9.30;;
36931;SDS011;22847;42.654;23.370;2022-09-09T15:46:37;14.35;;;8.15;;
36931;SDS011;22847;42.654;23.370;2022-09-09T15:51:30;23.90;;;9.52;;
36931;SDS011;22847;42.654;23.370;2022-09-09T15:53:56;21.30;;;10.55;;
36931;SDS011;22847;42.654;23.370;2022-09-09T15:56:23;21.45;;;8.70;;
36931;SDS011;22847;42.654;23.370;2022-09-09T15:58:49;17.35;;;8.45;;
36931;SDS011;22847;42.654;23.370;2022-09-09T16:01:14;19.75;;;9.68;;
36931;SDS011;22847;42.654;23.370;2022-09-09T16:03:42;22.80;;;10.05;;
36931;SDS011;22847;42.654;23.370;2022-09-09T16:06:08;19.48;;;9.93;;
36931;SDS011;22847;42.654;23.370;2022-09-09T16:08:35;21.13;;;10.60;;
36931;SDS011;22847;42.654;23.370;2022-09-09T16:11:06;47.40;;;22.52;;
36931;SDS011;22847;42.654;23.370;2022-09-09T16:13:37;20.17;;;11.18;;
36931;SDS011;22847;42.654;23.370;2022-09-09T16:16:07;19.67;;;10.95;;
36931;SDS011;22847;42.654;23.370;2022-09-09T16:18:38;25.10;;;10.25;;
36931;SDS011;22847;42.654;23.370;2022-09-09T16:21:15;23.80;;;11.20;;
36931;SDS011;22847;42.654;23.370;2022-09-09T16:23:45;19.02;;;10.13;;
36931;SDS011;22847;42.654;23.370;2022-09-09T16:26:11;17.98;;;9.50;;
36931;SDS011;22847;42.654;23.370;2022-09-09T16:28:38;26.33;;;12.50;;
36931;SDS011;22847;42.654;23.370;2022-09-09T16:31:07;21.42;;;10.27;;
36931;SDS011;22847;42.654;23.370;2022-09-09T16:33:35;21.83;;;10.23;;
36931;SDS011;22847;42.654;23.370;2022-09-09T16:36:05;18.90;;;10.25;;
36931;SDS011;22847;42.654;23.370;2022-09-09T16:38:35;19.65;;;12.10;;
36931;SDS011;22847;42.654;23.370;2022-09-09T16:41:02;20.15;;;11.32;;
36931;SDS011;22847;42.654;23.370;2022-09-09T16:43:30;30.42;;;13.30;;
36931;SDS011;22847;42.654;23.370;2022-09-09T16:45:56;43.55;;;16.55;;
36931;SDS011;22847;42.654;23.370;2022-09-09T16:48:22;25.17;;;12.57;;
36931;SDS011;22847;42.654;23.370;2022-09-09T16:50:48;31.67;;;13.55;;
36931;SDS011;22847;42.654;23.370;2022-09-09T16:53:14;23.35;;;11.55;;
36931;SDS011;22847;42.654;23.370;2022-09-09T16:55:40;34.20;;;12.48;;
36931;SDS011;22847;42.654;23.370;2022-09-09T16:58:06;19.05;;;10.93;;
36931;SDS011;22847;42.654;23.370;2022-09-09T17:00:33;24.15;;;11.60;;
36931;SDS011;22847;42.654;23.370;2022-09-09T17:02:59;22.73;;;12.20;;
36931;SDS011;22847;42.654;23.370;2022-09-09T17:05:25;23.45;;;10.65;;
36931;SDS011;22847;42.654;23.370;2022-09-09T17:07:50;25.80;;;11.10;;
36931;SDS011;22847;42.654;23.370;2022-09-09T17:10:16;18.25;;;11.00;;
36931;SDS011;22847;42.654;23.370;2022-09-09T17:12:42;30.00;;;13.25;;
36931;SDS011;22847;42.654;23.370;2022-09-09T17:15:08;26.27;;;14.50;;
36931;SDS011;22847;42.654;23.370;2022-09-09T17:17:35;26.25;;;12.30;;
36931;SDS011;22847;42.654;23.370;2022-09-09T17:20:00;28.08;;;12.40;;